sensor_id;sensor_type;location;lat;lon;timestamp;P1;durP1;ratioP1;P2;durP2;ratioP2
19406;SDS011;9839;53.364;-1.204;2023-01-29T00:01:28;14.00;;;7.57;;
19406;SDS011;9839;53.364;-1.204;2023-01-29T00:03:54;13.47;;;6.87;;
19406;SDS011;9839;53.364;-1.204;2023-01-29T00:06:20;13.97;;;6.97;;
19406;SDS011;9839;53.364;-1.204;2023-01-29T00:08:47;12.73;;;7.00;;
19406;SDS011;9839;53.364;-1.204;2023-01-29T00:11:14;11.77;;;6.67;;
19406;SDS011;9839;53.364;-1.204;2023-01-29T00:13:40;12.13;;;6.73;;
19406;SDS011;9839;53.364;-1.204;2023-01-29T00:16:06;12.10;;;6.20;;
19406;SDS011;9839;53.364;-1.204;2023-01-29T00:18:32;9.73;;;5.80;;
19406;SDS011;9839;53.364;-1.204;2023-01-29T00:21:01;11.60;;;6.60;;
19406;SDS011;9839;53.364;-1.204;2023-01-29T00:23:27;7.73;;;5.40;;
19406;SDS011;9839;53.364;-1.204;2023-01-29T00:25:53;13.17;;;6.07;;
19406;SDS011;9839;53.364;-1.204;2023-01-29T00:28:18;10.03;;;5.80;;
19406;SDS011;9839;53.364;-1.204;2023-01-29T00:30:44;9.07;;;5.67;;
19406;SDS011;9839;53.364;-1.204;2023-01-29T00:33:10;11.33;;;6.10;;
19406;SDS011;9839;53.364;-1.204;2023-01-29T00:35:38;10.60;;;6.50;;
19406;SDS011;9839;53.364;-1.204;2023-01-29T00:38:04;11.23;;;7.20;;
19406;SDS011;9839;53.364;-1.204;2023-01-29T00:40:29;15.03;;;7.50;;
19406;SDS011;9839;53.364;-1.204;2023-01-29T00:43:15;13.30;;;7.00;;
19406;SDS011;9839;53.364;-1.204;2023-01-29T00:45:59;24.53;;;7.97;;
19406;SDS011;9839;53.364;-1.204;2023-01-29T00:48:24;15.90;;;7.43;;
19406;SDS011;9839;53.364;-1.204;2023-01-29T00:50:50;16.87;;;8.40;;
19406;SDS011;9839;53.364;-1.204;2023-01-29T00:53:16;14.80;;;7.87;;
19406;SDS011;9839;53.364;-1.204;2023-01-29T00:55:42;15.53;;;8.00;;
19406;SDS011;9839;53.364;-1.204;2023-01-29T00:58:08;14.30;;;8.00;;
19406;SDS011;9839;53.364;-1.204;2023-01-29T01:00:34;16.03;;;9.07;;
19406;SDS011;9839;53.364;-1.204;2023-01-29T01:03:00;18.80;;;9.20;;
19406;SDS011;9839;53.364;-1.204;2023-01-29T01:05:31;17.20;;;9.43;;
19406;SDS011;9839;53.364;-1.204;2023-01-29T01:07:57;16.73;;;8.97;;
19406;SDS011;9839;53.364;-1.204;2023-01-29T01:10:27;15.20;;;8.87;;
19406;SDS011;9839;53.364;-1.204;2023-01-29T01:12:59;14.73;;;8.77;;
19406;SDS011;9839;53.364;-1.204;2023-01-29T01:15:44;12.43;;;7.93;;
19406;SDS011;9839;53.364;-1.204;2023-01-29T01:18:09;14.47;;;8.43;;
19406;SDS011;9839;53.364;-1.204;2023-01-29T01:20:35;13.47;;;7.90;;
19406;SDS011;9839;53.364;-1.204;2023-01-29T01:23:01;12.10;;;7.93;;
19406;SDS011;9839;53.364;-1.204;2023-01-29T01:25:27;13.03;;;7.77;;
19406;SDS011;9839;53.364;-1.204;2023-01-29T01:27:53;10.53;;;6.83;;
19406;SDS011;9839;53.364;-1.204;2023-01-29T01:30:20;13.10;;;7.13;;
19406;SDS011;9839;53.364;-1.204;2023-01-29T01:32:46;14.57;;;7.27;;
19406;SDS011;9839;53.364;-1.204;2023-01-29T01:35:11;17.77;;;7.40;;
19406;SDS011;9839;53.364;-1.204;2023-01-29T01:37:40;15.77;;;7.67;;
19406;SDS011;9839;53.364;-1.204;2023-01-29T01:40:07;14.90;;;7.23;;
19406;SDS011;9839;53.364;-1.204;2023-01-29T01:42:48;12.17;;;7.40;;
19406;SDS011;9839;53.364;-1.204;2023-01-29T01:50:37;10.17;;;5.93;;
19406;SDS011;9839;53.364;-1.204;2023-01-29T01:53:18;10.53;;;6.67;;
19406;SDS011;9839;53.364;-1.204;2023-01-29T01:56:06;10.40;;;5.97;;
19406;SDS011;9839;53.364;-1.204;2023-01-29T01:58:40;8.27;;;5.97;;
19406;SDS011;9839;53.364;-1.204;2023-01-29T02:01:14;10.60;;;6.43;;
19406;SDS011;9839;53.364;-1.204;2023-01-29T02:03:43;10.40;;;5.83;;
19406;SDS011;9839;53.364;-1.204;2023-01-29T02:06:38;11.90;;;6.50;;
19406;SDS011;9839;53.364;-1.204;2023-01-29T02:09:40;13.33;;;5.90;;
19406;SDS011;9839;53.364;-1.204;2023-01-29T02:12:11;10.17;;;5.67;;
19406;SDS011;9839;53.364;-1.204;2023-01-29T02:14:40;11.97;;;6.47;;
19406;SDS011;9839;53.364;-1.204;2023-01-29T02:17:07;11.43;;;5.57;;
19406;SDS011;9839;53.364;-1.204;2023-01-29T02:25:16;11.23;;;5.90;;
19406;SDS011;9839;53.364;-1.204;2023-01-29T02:30:16;9.87;;;5.90;;
19406;SDS011;9839;53.364;-1.204;2023-01-29T02:40:56;11.67;;;6.40;;
19406;SDS011;9839;53.364;-1.204;2023-01-29T02:43:39;11.93;;;6.07;;
19406;SDS011;9839;53.364;-1.204;2023-01-29T02:52:16;15.63;;;7.40;;
19406;SDS011;9839;53.364;-1.204;2023-01-29T02:55:00;11.10;;;6.17;;
19406;SDS011;9839;53.364;-1.204;2023-01-29T02:57:33;14.50;;;6.80;;
19406;SDS011;9839;53.364;-1.204;2023-01-29T03:05:38;11.93;;;6.60;;
19406;SDS011;9839;53.364;-1.204;2023-01-29T03:08:10;10.97;;;6.63;;
19406;SDS011;9839;53.364;-1.204;2023-01-29T03:10:44;10.83;;;6.30;;
19406;SDS011;9839;53.364;-1.204;2023-01-29T03:16:08;12.30;;;6.80;;
19406;SDS011;9839;53.364;-1.204;2023-01-29T03:18:52;9.60;;;5.67;;
19406;SDS011;9839;53.364;-1.204;2023-01-29T03:21:28;10.43;;;5.83;;
19406;SDS011;9839;53.364;-1.204;2023-01-29T03:24:17;12.43;;;6.30;;
19406;SDS011;9839;53.364;-1.204;2023-01-29T03:27:06;9.87;;;6.47;;
19406;SDS011;9839;53.364;-1.204;2023-01-29T03:29:53;10.40;;;6.13;;
19406;SDS011;9839;53.364;-1.204;2023-01-29T03:32:38;10.30;;;5.87;;
19406;SDS011;9839;53.364;-1.204;2023-01-29T03:35:05;11.50;;;6.10;;
19406;SDS011;9839;53.364;-1.204;2023-01-29T03:37:35;10.90;;;6.07;;
19406;SDS011;9839;53.364;-1.204;2023-01-29T03:40:05;10.53;;;5.80;;
19406;SDS011;9839;53.364;-1.204;2023-01-29T03:48:00;11.17;;;6.20;;
19406;SDS011;9839;53.364;-1.204;2023-01-29T03:53:23;11.57;;;5.77;;
19406;SDS011;9839;53.364;-1.204;2023-01-29T03:58:55;10.73;;;5.87;;
19406;SDS011;9839;53.364;-1.204;2023-01-29T04:01:39;10.37;;;5.43;;
19406;SDS011;9839;53.364;-1.204;2023-01-29T04:06:39;11.67;;;5.20;;
19406;SDS011;9839;53.364;-1.204;2023-01-29T04:09:11;8.80;;;5.33;;
19406;SDS011;9839;53.364;-1.204;2023-01-29T04:11:50;8.37;;;4.87;;
19406;SDS011;9839;53.364;-1.204;2023-01-29T04:14:20;8.80;;;5.60;;
19406;SDS011;9839;53.364;-1.204;2023-01-29T04:16:47;8.57;;;5.00;;
19406;SDS011;9839;53.364;-1.204;2023-01-29T04:19:16;11.33;;;5.90;;
19406;SDS011;9839;53.364;-1.204;2023-01-29T04:21:42;9.53;;;4.90;;
19406;SDS011;9839;53.364;-1.204;2023-01-29T04:24:09;9.07;;;4.83;;
19406;SDS011;9839;53.364;-1.204;2023-01-29T04:26:41;9.03;;;4.70;;
19406;SDS011;9839;53.364;-1.204;2023-01-29T04:32:02;7.63;;;4.70;;
19406;SDS011;9839;53.364;-1.204;2023-01-29T04:37:40;7.17;;;4.43;;
19406;SDS011;9839;53.364;-1.204;2023-01-29T04:40:13;6.67;;;4.47;;
19406;SDS011;9839;53.364;-1.204;2023-01-29T04:43:02;9.27;;;4.43;;
19406;SDS011;9839;53.364;-1.204;2023-01-29T04:50:43;5.13;;;3.40;;
19406;SDS011;9839;53.364;-1.204;2023-01-29T04:55:50;7.80;;;4.13;;
19406;SDS011;9839;53.364;-1.204;2023-01-29T05:00:49;8.63;;;4.47;;
19406;SDS011;9839;53.364;-1.204;2023-01-29T05:03:18;6.43;;;3.70;;
19406;SDS011;9839;53.364;-1.204;2023-01-29T05:05:47;7.23;;;3.77;;
19406;SDS011;9839;53.364;-1.204;2023-01-29T05:08:15;8.83;;;4.27;;
19406;SDS011;9839;53.364;-1.204;2023-01-29T05:10:43;9.03;;;4.40;;
19406;SDS011;9839;53.364;-1.204;2023-01-29T05:13:12;7.07;;;3.37;;
19406;SDS011;9839;53.364;-1.204;2023-01-29T05:15:49;8.80;;;3.90;;
19406;SDS011;9839;53.364;-1.204;2023-01-29T05:18:20;6.63;;;3.67;;
19406;SDS011;9839;53.364;-1.204;2023-01-29T05:20:45;6.47;;;3.57;;
19406;SDS011;9839;53.364;-1.204;2023-01-29T05:25:42;7.17;;;3.90;;
19406;SDS011;9839;53.364;-1.204;2023-01-29T05:28:09;8.37;;;3.70;;
19406;SDS011;9839;53.364;-1.204;2023-01-29T05:30:42;9.37;;;4.13;;
19406;SDS011;9839;53.364;-1.204;2023-01-29T05:35:42;7.97;;;4.07;;
19406;SDS011;9839;53.364;-1.204;2023-01-29T05:38:08;7.77;;;4.03;;
19406;SDS011;9839;53.364;-1.204;2023-01-29T05:40:34;11.73;;;4.87;;
19406;SDS011;9839;53.364;-1.204;2023-01-29T05:43:00;7.83;;;3.70;;
19406;SDS011;9839;53.364;-1.204;2023-01-29T05:45:26;8.00;;;3.73;;
19406;SDS011;9839;53.364;-1.204;2023-01-29T05:47:55;12.47;;;4.30;;
19406;SDS011;9839;53.364;-1.204;2023-01-29T05:50:22;8.10;;;4.07;;
19406;SDS011;9839;53.364;-1.204;2023-01-29T05:52:49;8.37;;;4.10;;
19406;SDS011;9839;53.364;-1.204;2023-01-29T05:55:19;10.37;;;5.00;;
19406;SDS011;9839;53.364;-1.204;2023-01-29T05:57:45;10.03;;;4.73;;
19406;SDS011;9839;53.364;-1.204;2023-01-29T06:00:11;10.87;;;4.90;;
19406;SDS011;9839;53.364;-1.204;2023-01-29T06:02:37;8.10;;;3.93;;
19406;SDS011;9839;53.364;-1.204;2023-01-29T06:05:03;7.97;;;4.03;;
19406;SDS011;9839;53.364;-1.204;2023-01-29T06:07:29;9.97;;;4.70;;
19406;SDS011;9839;53.364;-1.204;2023-01-29T06:09:54;9.47;;;3.80;;
19406;SDS011;9839;53.364;-1.204;2023-01-29T06:12:20;6.90;;;3.67;;
19406;SDS011;9839;53.364;-1.204;2023-01-29T06:14:46;8.03;;;4.00;;
19406;SDS011;9839;53.364;-1.204;2023-01-29T06:17:11;9.57;;;3.87;;
19406;SDS011;9839;53.364;-1.204;2023-01-29T06:19:37;8.07;;;4.33;;
19406;SDS011;9839;53.364;-1.204;2023-01-29T06:22:03;8.20;;;4.23;;
19406;SDS011;9839;53.364;-1.204;2023-01-29T06:24:28;8.57;;;4.40;;
19406;SDS011;9839;53.364;-1.204;2023-01-29T06:26:54;7.00;;;3.67;;
19406;SDS011;9839;53.364;-1.204;2023-01-29T06:29:20;6.13;;;3.57;;
19406;SDS011;9839;53.364;-1.204;2023-01-29T06:31:45;5.10;;;3.10;;
19406;SDS011;9839;53.364;-1.204;2023-01-29T06:34:11;8.40;;;3.60;;
19406;SDS011;9839;53.364;-1.204;2023-01-29T06:36:36;6.83;;;3.10;;
19406;SDS011;9839;53.364;-1.204;2023-01-29T06:39:02;7.33;;;3.33;;
19406;SDS011;9839;53.364;-1.204;2023-01-29T06:41:28;6.50;;;3.30;;
19406;SDS011;9839;53.364;-1.204;2023-01-29T06:43:54;6.07;;;3.90;;
19406;SDS011;9839;53.364;-1.204;2023-01-29T06:46:19;7.83;;;4.17;;
19406;SDS011;9839;53.364;-1.204;2023-01-29T06:48:45;5.87;;;3.77;;
19406;SDS011;9839;53.364;-1.204;2023-01-29T06:51:11;6.97;;;3.87;;
19406;SDS011;9839;53.364;-1.204;2023-01-29T06:53:37;6.23;;;3.57;;
19406;SDS011;9839;53.364;-1.204;2023-01-29T06:56:03;8.73;;;4.03;;
19406;SDS011;9839;53.364;-1.204;2023-01-29T06:58:30;6.83;;;3.30;;
19406;SDS011;9839;53.364;-1.204;2023-01-29T07:01:06;8.37;;;3.13;;
19406;SDS011;9839;53.364;-1.204;2023-01-29T07:03:33;7.17;;;3.63;;
19406;SDS011;9839;53.364;-1.204;2023-01-29T07:05:58;6.03;;;3.40;;
19406;SDS011;9839;53.364;-1.204;2023-01-29T07:08:24;6.33;;;3.00;;
19406;SDS011;9839;53.364;-1.204;2023-01-29T07:10:50;3.73;;;2.80;;
19406;SDS011;9839;53.364;-1.204;2023-01-29T07:13:15;4.60;;;2.50;;
19406;SDS011;9839;53.364;-1.204;2023-01-29T07:15:41;7.40;;;2.97;;
19406;SDS011;9839;53.364;-1.204;2023-01-29T07:18:08;5.50;;;2.80;;
19406;SDS011;9839;53.364;-1.204;2023-01-29T07:20:40;9.30;;;2.87;;
19406;SDS011;9839;53.364;-1.204;2023-01-29T07:23:10;6.87;;;2.73;;
19406;SDS011;9839;53.364;-1.204;2023-01-29T07:25:37;3.87;;;2.83;;
19406;SDS011;9839;53.364;-1.204;2023-01-29T07:28:03;5.80;;;3.30;;
19406;SDS011;9839;53.364;-1.204;2023-01-29T07:30:29;5.93;;;3.10;;
19406;SDS011;9839;53.364;-1.204;2023-01-29T07:32:54;7.70;;;3.43;;
19406;SDS011;9839;53.364;-1.204;2023-01-29T07:35:24;6.53;;;3.70;;
19406;SDS011;9839;53.364;-1.204;2023-01-29T07:37:50;5.43;;;3.63;;
19406;SDS011;9839;53.364;-1.204;2023-01-29T07:40:16;7.77;;;4.07;;
19406;SDS011;9839;53.364;-1.204;2023-01-29T07:42:41;8.37;;;4.20;;
19406;SDS011;9839;53.364;-1.204;2023-01-29T07:45:08;7.97;;;4.70;;
19406;SDS011;9839;53.364;-1.204;2023-01-29T07:47:34;9.53;;;4.37;;
19406;SDS011;9839;53.364;-1.204;2023-01-29T07:50:00;6.93;;;3.97;;
19406;SDS011;9839;53.364;-1.204;2023-01-29T07:52:28;7.43;;;4.40;;
19406;SDS011;9839;53.364;-1.204;2023-01-29T07:54:54;12.17;;;4.33;;
19406;SDS011;9839;53.364;-1.204;2023-01-29T07:57:20;7.53;;;3.87;;
19406;SDS011;9839;53.364;-1.204;2023-01-29T07:59:46;5.97;;;3.70;;
19406;SDS011;9839;53.364;-1.204;2023-01-29T08:02:12;5.33;;;3.50;;
19406;SDS011;9839;53.364;-1.204;2023-01-29T08:04:37;6.03;;;3.40;;
19406;SDS011;9839;53.364;-1.204;2023-01-29T08:07:03;8.47;;;3.67;;
19406;SDS011;9839;53.364;-1.204;2023-01-29T08:09:29;8.60;;;3.43;;
19406;SDS011;9839;53.364;-1.204;2023-01-29T08:11:55;4.40;;;2.93;;
19406;SDS011;9839;53.364;-1.204;2023-01-29T08:14:21;7.80;;;3.40;;
19406;SDS011;9839;53.364;-1.204;2023-01-29T08:16:47;5.80;;;2.53;;
19406;SDS011;9839;53.364;-1.204;2023-01-29T08:19:13;6.53;;;2.50;;
19406;SDS011;9839;53.364;-1.204;2023-01-29T08:21:39;3.87;;;2.00;;
19406;SDS011;9839;53.364;-1.204;2023-01-29T08:24:04;6.37;;;2.00;;
19406;SDS011;9839;53.364;-1.204;2023-01-29T08:26:31;2.43;;;1.53;;
19406;SDS011;9839;53.364;-1.204;2023-01-29T08:28:56;5.57;;;1.57;;
19406;SDS011;9839;53.364;-1.204;2023-01-29T08:31:22;5.13;;;1.80;;
19406;SDS011;9839;53.364;-1.204;2023-01-29T08:33:48;2.27;;;1.87;;
19406;SDS011;9839;53.364;-1.204;2023-01-29T08:36:14;8.27;;;1.60;;
19406;SDS011;9839;53.364;-1.204;2023-01-29T08:38:39;5.90;;;1.50;;
19406;SDS011;9839;53.364;-1.204;2023-01-29T08:41:05;6.90;;;1.37;;
19406;SDS011;9839;53.364;-1.204;2023-01-29T08:43:31;1.53;;;1.00;;
19406;SDS011;9839;53.364;-1.204;2023-01-29T08:45:59;3.57;;;1.20;;
19406;SDS011;9839;53.364;-1.204;2023-01-29T08:48:24;2.00;;;1.27;;
19406;SDS011;9839;53.364;-1.204;2023-01-29T08:50:50;4.27;;;1.20;;
19406;SDS011;9839;53.364;-1.204;2023-01-29T08:53:16;1.80;;;1.00;;
19406;SDS011;9839;53.364;-1.204;2023-01-29T08:55:43;2.70;;;1.30;;
19406;SDS011;9839;53.364;-1.204;2023-01-29T08:58:10;3.70;;;1.27;;
19406;SDS011;9839;53.364;-1.204;2023-01-29T09:00:36;4.37;;;1.30;;
19406;SDS011;9839;53.364;-1.204;2023-01-29T09:03:02;6.83;;;1.50;;
19406;SDS011;9839;53.364;-1.204;2023-01-29T09:05:28;2.20;;;1.20;;
19406;SDS011;9839;53.364;-1.204;2023-01-29T09:07:57;4.20;;;1.23;;
19406;SDS011;9839;53.364;-1.204;2023-01-29T09:10:23;2.87;;;1.30;;
19406;SDS011;9839;53.364;-1.204;2023-01-29T09:12:49;4.53;;;1.50;;
19406;SDS011;9839;53.364;-1.204;2023-01-29T09:15:15;5.57;;;1.20;;
19406;SDS011;9839;53.364;-1.204;2023-01-29T09:17:41;2.20;;;1.30;;
19406;SDS011;9839;53.364;-1.204;2023-01-29T09:20:07;4.40;;;1.43;;
19406;SDS011;9839;53.364;-1.204;2023-01-29T09:22:34;3.70;;;1.60;;
19406;SDS011;9839;53.364;-1.204;2023-01-29T09:25:00;5.07;;;1.80;;
19406;SDS011;9839;53.364;-1.204;2023-01-29T09:27:26;4.77;;;1.50;;
19406;SDS011;9839;53.364;-1.204;2023-01-29T09:29:52;5.47;;;1.60;;
19406;SDS011;9839;53.364;-1.204;2023-01-29T09:32:18;3.70;;;1.60;;
19406;SDS011;9839;53.364;-1.204;2023-01-29T09:34:43;5.63;;;1.73;;
19406;SDS011;9839;53.364;-1.204;2023-01-29T09:37:09;6.50;;;1.43;;
19406;SDS011;9839;53.364;-1.204;2023-01-29T09:39:34;9.13;;;2.00;;
19406;SDS011;9839;53.364;-1.204;2023-01-29T09:47:13;3.17;;;1.00;;
19406;SDS011;9839;53.364;-1.204;2023-01-29T09:49:42;4.80;;;1.63;;
19406;SDS011;9839;53.364;-1.204;2023-01-29T09:52:23;3.37;;;1.23;;
19406;SDS011;9839;53.364;-1.204;2023-01-29T09:57:47;2.70;;;1.20;;
19406;SDS011;9839;53.364;-1.204;2023-01-29T10:00:23;5.67;;;1.63;;
19406;SDS011;9839;53.364;-1.204;2023-01-29T10:17:26;4.03;;;1.67;;
19406;SDS011;9839;53.364;-1.204;2023-01-29T10:23:09;2.83;;;1.53;;
19406;SDS011;9839;53.364;-1.204;2023-01-29T10:25:38;3.97;;;1.40;;
19406;SDS011;9839;53.364;-1.204;2023-01-29T10:28:19;2.40;;;1.27;;
19406;SDS011;9839;53.364;-1.204;2023-01-29T10:30:53;1.93;;;1.33;;
19406;SDS011;9839;53.364;-1.204;2023-01-29T10:33:24;3.87;;;1.60;;
19406;SDS011;9839;53.364;-1.204;2023-01-29T10:36:02;5.10;;;1.87;;
19406;SDS011;9839;53.364;-1.204;2023-01-29T10:41:09;6.90;;;2.70;;
19406;SDS011;9839;53.364;-1.204;2023-01-29T10:55:04;2.40;;;1.47;;
19406;SDS011;9839;53.364;-1.204;2023-01-29T11:01:11;2.10;;;1.20;;
19406;SDS011;9839;53.364;-1.204;2023-01-29T11:03:37;6.17;;;1.67;;
19406;SDS011;9839;53.364;-1.204;2023-01-29T11:09:25;3.57;;;1.50;;
19406;SDS011;9839;53.364;-1.204;2023-01-29T11:18:04;5.77;;;1.30;;
19406;SDS011;9839;53.364;-1.204;2023-01-29T11:20:37;6.03;;;1.30;;
19406;SDS011;9839;53.364;-1.204;2023-01-29T11:23:04;4.77;;;1.43;;
19406;SDS011;9839;53.364;-1.204;2023-01-29T11:25:30;4.90;;;1.58;;
19406;SDS011;9839;53.364;-1.204;2023-01-29T11:27:59;2.27;;;1.00;;
19406;SDS011;9839;53.364;-1.204;2023-01-29T11:35:45;4.75;;;1.17;;
19406;SDS011;9839;53.364;-1.204;2023-01-29T11:40:40;3.33;;;0.95;;
19406;SDS011;9839;53.364;-1.204;2023-01-29T11:43:11;1.38;;;0.98;;
19406;SDS011;9839;53.364;-1.204;2023-01-29T11:45:58;6.75;;;1.20;;
19406;SDS011;9839;53.364;-1.204;2023-01-29T11:48:30;3.53;;;1.25;;
19406;SDS011;9839;53.364;-1.204;2023-01-29T11:51:05;2.05;;;1.00;;
19406;SDS011;9839;53.364;-1.204;2023-01-29T11:53:41;1.50;;;1.10;;
19406;SDS011;9839;53.364;-1.204;2023-01-29T11:56:22;4.10;;;1.02;;
19406;SDS011;9839;53.364;-1.204;2023-01-29T11:58:48;1.70;;;1.20;;
19406;SDS011;9839;53.364;-1.204;2023-01-29T12:01:17;1.33;;;1.08;;
19406;SDS011;9839;53.364;-1.204;2023-01-29T12:03:53;2.80;;;1.50;;
19406;SDS011;9839;53.364;-1.204;2023-01-29T12:06:22;5.38;;;2.85;;
19406;SDS011;9839;53.364;-1.204;2023-01-29T12:09:00;3.85;;;1.60;;
19406;SDS011;9839;53.364;-1.204;2023-01-29T12:11:30;3.35;;;1.25;;
19406;SDS011;9839;53.364;-1.204;2023-01-29T12:13:58;1.45;;;1.20;;
19406;SDS011;9839;53.364;-1.204;2023-01-29T12:16:30;3.40;;;1.45;;
19406;SDS011;9839;53.364;-1.204;2023-01-29T12:19:22;2.70;;;1.65;;
19406;SDS011;9839;53.364;-1.204;2023-01-29T12:22:03;10.40;;;2.90;;
19406;SDS011;9839;53.364;-1.204;2023-01-29T12:24:56;3.38;;;1.60;;
19406;SDS011;9839;53.364;-1.204;2023-01-29T12:29:55;1.40;;;1.30;;
19406;SDS011;9839;53.364;-1.204;2023-01-29T12:32:42;9.68;;;2.55;;
19406;SDS011;9839;53.364;-1.204;2023-01-29T12:37:52;4.72;;;1.85;;
19406;SDS011;9839;53.364;-1.204;2023-01-29T12:40:41;9.70;;;2.03;;
19406;SDS011;9839;53.364;-1.204;2023-01-29T12:43:17;2.05;;;1.23;;
19406;SDS011;9839;53.364;-1.204;2023-01-29T12:45:53;2.88;;;0.98;;
19406;SDS011;9839;53.364;-1.204;2023-01-29T12:48:32;2.60;;;1.15;;
19406;SDS011;9839;53.364;-1.204;2023-01-29T12:51:06;1.27;;;0.88;;
19406;SDS011;9839;53.364;-1.204;2023-01-29T12:53:40;3.50;;;1.75;;
19406;SDS011;9839;53.364;-1.204;2023-01-29T12:56:26;4.53;;;1.15;;
19406;SDS011;9839;53.364;-1.204;2023-01-29T12:58:56;2.63;;;1.20;;
19406;SDS011;9839;53.364;-1.204;2023-01-29T13:01:30;2.43;;;0.80;;
19406;SDS011;9839;53.364;-1.204;2023-01-29T13:06:32;2.97;;;0.90;;
19406;SDS011;9839;53.364;-1.204;2023-01-29T13:09:06;4.70;;;1.20;;
19406;SDS011;9839;53.364;-1.204;2023-01-29T13:11:40;1.80;;;0.80;;
19406;SDS011;9839;53.364;-1.204;2023-01-29T13:14:30;2.10;;;1.10;;
19406;SDS011;9839;53.364;-1.204;2023-01-29T13:17:08;7.25;;;1.00;;
19406;SDS011;9839;53.364;-1.204;2023-01-29T13:19:43;1.37;;;0.90;;
19406;SDS011;9839;53.364;-1.204;2023-01-29T13:22:24;4.10;;;0.90;;
19406;SDS011;9839;53.364;-1.204;2023-01-29T13:24:51;4.60;;;1.07;;
19406;SDS011;9839;53.364;-1.204;2023-01-29T13:27:24;2.90;;;1.30;;
19406;SDS011;9839;53.364;-1.204;2023-01-29T13:29:55;2.67;;;1.27;;
19406;SDS011;9839;53.364;-1.204;2023-01-29T13:32:23;6.50;;;1.10;;
19406;SDS011;9839;53.364;-1.204;2023-01-29T13:34:56;4.37;;;1.00;;
19406;SDS011;9839;53.364;-1.204;2023-01-29T13:37:36;3.97;;;1.30;;
19406;SDS011;9839;53.364;-1.204;2023-01-29T13:40:18;1.57;;;0.83;;
19406;SDS011;9839;53.364;-1.204;2023-01-29T13:42:51;3.83;;;1.00;;
19406;SDS011;9839;53.364;-1.204;2023-01-29T13:48:43;2.97;;;1.90;;
19406;SDS011;9839;53.364;-1.204;2023-01-29T13:50:54;2.73;;;1.20;;
19406;SDS011;9839;53.364;-1.204;2023-01-29T13:53:22;4.97;;;1.97;;
19406;SDS011;9839;53.364;-1.204;2023-01-29T13:55:51;3.27;;;1.60;;
19406;SDS011;9839;53.364;-1.204;2023-01-29T13:58:18;2.03;;;1.77;;
19406;SDS011;9839;53.364;-1.204;2023-01-29T14:01:08;4.07;;;2.00;;
19406;SDS011;9839;53.364;-1.204;2023-01-29T14:03:43;3.03;;;1.60;;
19406;SDS011;9839;53.364;-1.204;2023-01-29T14:06:10;3.13;;;1.83;;
19406;SDS011;9839;53.364;-1.204;2023-01-29T14:08:42;3.40;;;2.20;;
19406;SDS011;9839;53.364;-1.204;2023-01-29T14:13:38;3.27;;;1.90;;
19406;SDS011;9839;53.364;-1.204;2023-01-29T14:18:34;4.43;;;2.87;;
19406;SDS011;9839;53.364;-1.204;2023-01-29T14:21:03;5.47;;;2.97;;
19406;SDS011;9839;53.364;-1.204;2023-01-29T14:23:51;4.40;;;3.37;;
19406;SDS011;9839;53.364;-1.204;2023-01-29T14:28:55;8.20;;;3.97;;
19406;SDS011;9839;53.364;-1.204;2023-01-29T14:32:07;9.03;;;3.50;;
19406;SDS011;9839;53.364;-1.204;2023-01-29T14:36:45;7.57;;;3.50;;
19406;SDS011;9839;53.364;-1.204;2023-01-29T14:39:26;3.67;;;2.77;;
19406;SDS011;9839;53.364;-1.204;2023-01-29T14:42:01;8.63;;;3.70;;
19406;SDS011;9839;53.364;-1.204;2023-01-29T14:49:55;5.33;;;3.80;;
19406;SDS011;9839;53.364;-1.204;2023-01-29T14:52:25;7.43;;;4.07;;
19406;SDS011;9839;53.364;-1.204;2023-01-29T14:54:58;8.00;;;3.87;;
19406;SDS011;9839;53.364;-1.204;2023-01-29T14:57:26;5.67;;;3.60;;
19406;SDS011;9839;53.364;-1.204;2023-01-29T14:59:55;5.50;;;3.60;;
19406;SDS011;9839;53.364;-1.204;2023-01-29T15:02:25;7.37;;;3.77;;
19406;SDS011;9839;53.364;-1.204;2023-01-29T15:05:01;6.70;;;3.50;;
19406;SDS011;9839;53.364;-1.204;2023-01-29T15:07:33;6.00;;;3.00;;
19406;SDS011;9839;53.364;-1.204;2023-01-29T15:13:00;6.13;;;2.83;;
19406;SDS011;9839;53.364;-1.204;2023-01-29T15:15:42;6.47;;;3.50;;
19406;SDS011;9839;53.364;-1.204;2023-01-29T15:18:14;6.53;;;3.20;;
19406;SDS011;9839;53.364;-1.204;2023-01-29T15:20:47;7.57;;;3.70;;
19406;SDS011;9839;53.364;-1.204;2023-01-29T15:23:28;4.40;;;3.17;;
19406;SDS011;9839;53.364;-1.204;2023-01-29T15:25:56;8.13;;;3.50;;
19406;SDS011;9839;53.364;-1.204;2023-01-29T15:28:26;10.63;;;3.60;;
19406;SDS011;9839;53.364;-1.204;2023-01-29T15:30:55;4.80;;;3.47;;
19406;SDS011;9839;53.364;-1.204;2023-01-29T15:33:23;7.87;;;3.47;;
19406;SDS011;9839;53.364;-1.204;2023-01-29T15:35:54;8.00;;;4.00;;
19406;SDS011;9839;53.364;-1.204;2023-01-29T15:38:23;6.27;;;3.90;;
19406;SDS011;9839;53.364;-1.204;2023-01-29T15:40:51;4.63;;;3.80;;
19406;SDS011;9839;53.364;-1.204;2023-01-29T15:43:21;9.03;;;4.13;;
19406;SDS011;9839;53.364;-1.204;2023-01-29T15:45:56;8.63;;;4.40;;
19406;SDS011;9839;53.364;-1.204;2023-01-29T15:48:29;6.83;;;4.13;;
19406;SDS011;9839;53.364;-1.204;2023-01-29T15:50:58;6.43;;;4.10;;
19406;SDS011;9839;53.364;-1.204;2023-01-29T15:53:29;5.80;;;4.13;;
19406;SDS011;9839;53.364;-1.204;2023-01-29T15:56:00;7.90;;;4.30;;
19406;SDS011;9839;53.364;-1.204;2023-01-29T15:58:27;7.93;;;4.07;;
19406;SDS011;9839;53.364;-1.204;2023-01-29T16:00:55;8.10;;;4.53;;
19406;SDS011;9839;53.364;-1.204;2023-01-29T16:03:23;6.90;;;4.87;;
19406;SDS011;9839;53.364;-1.204;2023-01-29T16:05:52;9.07;;;4.73;;
19406;SDS011;9839;53.364;-1.204;2023-01-29T16:08:19;7.70;;;5.03;;
19406;SDS011;9839;53.364;-1.204;2023-01-29T16:10:48;9.73;;;5.03;;
19406;SDS011;9839;53.364;-1.204;2023-01-29T16:13:20;8.83;;;4.40;;
19406;SDS011;9839;53.364;-1.204;2023-01-29T16:15:55;6.00;;;4.33;;
19406;SDS011;9839;53.364;-1.204;2023-01-29T16:18:41;7.43;;;4.13;;
19406;SDS011;9839;53.364;-1.204;2023-01-29T16:23:41;8.80;;;4.40;;
19406;SDS011;9839;53.364;-1.204;2023-01-29T16:26:23;6.37;;;3.70;;
19406;SDS011;9839;53.364;-1.204;2023-01-29T16:28:52;6.20;;;3.87;;
19406;SDS011;9839;53.364;-1.204;2023-01-29T16:31:26;7.13;;;4.10;;
19406;SDS011;9839;53.364;-1.204;2023-01-29T16:33:52;8.17;;;4.30;;
19406;SDS011;9839;53.364;-1.204;2023-01-29T16:36:22;8.43;;;5.10;;
19406;SDS011;9839;53.364;-1.204;2023-01-29T16:38:53;7.03;;;4.60;;
19406;SDS011;9839;53.364;-1.204;2023-01-29T16:46:18;8.50;;;5.30;;
19406;SDS011;9839;53.364;-1.204;2023-01-29T16:48:48;7.43;;;5.20;;
19406;SDS011;9839;53.364;-1.204;2023-01-29T16:51:19;9.27;;;4.77;;
19406;SDS011;9839;53.364;-1.204;2023-01-29T16:56:31;6.93;;;4.47;;
19406;SDS011;9839;53.364;-1.204;2023-01-29T16:58:58;8.77;;;5.40;;
19406;SDS011;9839;53.364;-1.204;2023-01-29T17:01:25;10.90;;;6.33;;
19406;SDS011;9839;53.364;-1.204;2023-01-29T17:04:09;11.03;;;6.00;;
19406;SDS011;9839;53.364;-1.204;2023-01-29T17:06:39;11.23;;;6.60;;
19406;SDS011;9839;53.364;-1.204;2023-01-29T17:09:23;7.23;;;4.97;;
19406;SDS011;9839;53.364;-1.204;2023-01-29T17:12:00;11.63;;;5.83;;
19406;SDS011;9839;53.364;-1.204;2023-01-29T17:14:29;9.03;;;6.03;;
19406;SDS011;9839;53.364;-1.204;2023-01-29T17:19:46;9.00;;;6.07;;
19406;SDS011;9839;53.364;-1.204;2023-01-29T17:22:11;10.27;;;5.90;;
19406;SDS011;9839;53.364;-1.204;2023-01-29T17:24:39;10.90;;;6.27;;
19406;SDS011;9839;53.364;-1.204;2023-01-29T17:27:05;14.67;;;6.23;;
19406;SDS011;9839;53.364;-1.204;2023-01-29T17:29:30;8.43;;;5.90;;
19406;SDS011;9839;53.364;-1.204;2023-01-29T17:31:57;11.13;;;5.57;;
19406;SDS011;9839;53.364;-1.204;2023-01-29T17:34:24;7.40;;;5.70;;
19406;SDS011;9839;53.364;-1.204;2023-01-29T17:36:50;8.00;;;5.07;;
19406;SDS011;9839;53.364;-1.204;2023-01-29T17:39:19;9.80;;;5.50;;
19406;SDS011;9839;53.364;-1.204;2023-01-29T17:41:51;12.80;;;5.20;;
19406;SDS011;9839;53.364;-1.204;2023-01-29T17:44:19;7.83;;;4.53;;
19406;SDS011;9839;53.364;-1.204;2023-01-29T17:46:45;7.60;;;5.50;;
19406;SDS011;9839;53.364;-1.204;2023-01-29T17:49:19;6.47;;;4.60;;
19406;SDS011;9839;53.364;-1.204;2023-01-29T17:51:50;6.67;;;5.27;;
19406;SDS011;9839;53.364;-1.204;2023-01-29T17:54:17;6.30;;;4.47;;
19406;SDS011;9839;53.364;-1.204;2023-01-29T17:56:43;6.67;;;4.63;;
19406;SDS011;9839;53.364;-1.204;2023-01-29T17:59:12;5.30;;;4.20;;